createdAt,value
2024-01-08T00:02:14.525Z,5.90
2024-01-08T00:05:03.114Z,4.47
2024-01-08T00:07:51.958Z,5.37
2024-01-08T00:10:41.929Z,6.03
2024-01-08T00:13:30.446Z,4.87
2024-01-08T00:16:19.150Z,5.00
2024-01-08T00:19:07.770Z,4.27
2024-01-08T00:21:56.376Z,4.90
2024-01-08T00:24:44.961Z,5.33
2024-01-08T00:27:35.188Z,5.13
2024-01-08T00:30:23.783Z,5.40
2024-01-08T00:33:12.344Z,5.23
2024-01-08T00:36:00.879Z,5.43
2024-01-08T00:38:49.430Z,4.90
2024-01-08T00:41:38.083Z,4.97
2024-01-08T00:44:28.112Z,5.40
2024-01-08T00:47:16.672Z,6.00
2024-01-08T00:50:06.304Z,4.33
2024-01-08T00:52:54.914Z,5.47
2024-01-08T00:55:43.502Z,5.37
2024-01-08T00:58:32.078Z,7.57
2024-01-08T01:01:21.927Z,5.03
2024-01-08T01:04:10.571Z,5.90
2024-01-08T01:06:59.778Z,5.40
2024-01-08T01:09:48.335Z,5.83
2024-01-08T01:12:36.935Z,5.60
2024-01-08T01:15:25.450Z,6.23
2024-01-08T01:18:15.491Z,5.40
2024-01-08T01:21:04.345Z,5.50
2024-01-08T01:23:53.175Z,5.37
2024-01-08T01:26:41.916Z,5.80
2024-01-08T01:29:30.799Z,5.20
2024-01-08T01:32:19.489Z,5.77
2024-01-08T01:35:10.258Z,5.40
2024-01-08T01:37:59.702Z,5.63
2024-01-08T01:40:48.694Z,5.43
2024-01-08T01:43:37.271Z,4.87
2024-01-08T01:46:38.462Z,6.43
2024-01-08T01:49:27.247Z,5.07
2024-01-08T01:52:17.136Z,5.27
2024-01-08T01:55:06.698Z,5.10
2024-01-08T01:57:55.438Z,6.10
2024-01-08T02:00:44.275Z,6.00
2024-01-08T02:03:33.658Z,5.57
2024-01-08T02:06:23.953Z,5.90
2024-01-08T02:09:14.781Z,5.93
2024-01-08T02:12:03.356Z,5.63
2024-01-08T02:14:51.999Z,5.10
2024-01-08T02:17:40.691Z,5.10
2024-01-08T02:20:29.406Z,4.60
2024-01-08T02:23:19.669Z,4.50
2024-01-08T02:26:08.726Z,4.97
2024-01-08T02:28:57.428Z,5.70
2024-01-08T02:31:45.947Z,5.27
2024-01-08T02:34:34.855Z,4.97
2024-01-08T02:37:24.659Z,4.97
2024-01-08T02:40:15.142Z,5.00
2024-01-08T02:43:03.798Z,4.70
2024-01-08T02:45:52.505Z,5.40
2024-01-08T02:48:41.125Z,5.27
2024-01-08T02:51:29.999Z,5.40
2024-01-08T02:54:18.766Z,5.50
2024-01-08T02:57:08.674Z,5.67
2024-01-08T02:59:58.548Z,4.67
2024-01-08T03:02:48.336Z,6.30
2024-01-08T03:05:36.921Z,6.60
2024-01-08T03:08:25.521Z,5.10
2024-01-08T03:11:14.152Z,3.80
2024-01-08T03:14:04.211Z,5.47
2024-01-08T03:16:52.952Z,5.63
2024-01-08T03:19:41.510Z,5.00
2024-01-08T03:22:30.711Z,5.93
2024-01-08T03:25:19.655Z,5.20
2024-01-08T03:28:08.167Z,4.90
2024-01-08T03:30:58.136Z,4.83
2024-01-08T03:33:46.789Z,5.10
2024-01-08T03:36:35.684Z,4.93
2024-01-08T03:39:24.176Z,4.60
2024-01-08T03:42:12.654Z,4.60
2024-01-08T03:45:01.340Z,5.30
2024-01-08T03:47:51.521Z,3.70
2024-01-08T03:50:40.225Z,4.57
2024-01-08T03:53:28.844Z,4.63
2024-01-08T03:56:17.466Z,4.30
2024-01-08T03:59:06.081Z,4.80
2024-01-08T04:01:55.265Z,4.30
2024-01-08T04:04:45.288Z,4.00
2024-01-08T04:07:33.815Z,5.03
2024-01-08T04:10:22.401Z,4.13
2024-01-08T04:13:11.013Z,3.93
2024-01-08T04:15:59.599Z,4.10
2024-01-08T04:18:48.250Z,4.67
2024-01-08T04:21:38.165Z,4.53
2024-01-08T04:24:26.721Z,4.87
2024-01-08T04:27:15.253Z,5.87
2024-01-08T04:30:03.993Z,4.60
2024-01-08T04:32:52.635Z,5.10
2024-01-08T04:35:41.302Z,4.70
2024-01-08T04:38:31.326Z,4.07
2024-01-08T04:41:21.348Z,4.67
2024-01-08T04:44:11.058Z,5.40
2024-01-08T04:46:59.727Z,4.43
2024-01-08T04:49:48.287Z,3.60
2024-01-08T04:52:36.814Z,4.20
2024-01-08T04:55:26.718Z,4.30
2024-01-08T04:58:15.268Z,4.97
2024-01-08T05:01:03.948Z,4.73
2024-01-08T05:03:52.984Z,4.73
2024-01-08T05:06:41.750Z,3.90
2024-01-08T05:09:31.150Z,4.37
2024-01-08T05:12:21.101Z,3.87
2024-01-08T05:15:10.570Z,5.77
2024-01-08T05:17:59.285Z,5.00
2024-01-08T05:20:47.906Z,5.00
2024-01-08T05:23:36.615Z,5.50
2024-01-08T05:26:25.300Z,4.30
2024-01-08T05:29:15.285Z,4.57
2024-01-08T05:32:04.642Z,5.27
2024-01-08T05:34:53.213Z,3.77
2024-01-08T05:37:41.815Z,4.57
2024-01-08T05:40:30.363Z,5.00
2024-01-08T05:43:19.298Z,4.50
2024-01-08T05:46:09.966Z,5.03
2024-01-08T05:48:58.598Z,5.53
2024-01-08T05:51:48.180Z,5.47
2024-01-08T05:54:38.493Z,4.40
2024-01-08T05:57:27.016Z,5.07
2024-01-08T06:00:17.078Z,4.90
2024-01-08T06:03:07.168Z,4.80
2024-01-08T06:05:56.038Z,5.37
2024-01-08T06:08:44.829Z,5.27
2024-01-08T06:11:33.546Z,5.10
2024-01-08T06:14:22.196Z,5.50
2024-01-08T06:17:12.039Z,5.97
2024-01-08T06:20:02.065Z,18.47
2024-01-08T06:22:51.334Z,6.07
2024-01-08T06:25:39.951Z,6.10
2024-01-08T06:28:28.544Z,5.70
2024-01-08T06:31:17.152Z,6.30
2024-01-08T06:34:05.830Z,5.87
2024-01-08T06:36:55.762Z,5.83
2024-01-08T06:39:44.275Z,5.30
2024-01-08T06:42:46.910Z,5.50
2024-01-08T06:45:41.289Z,5.53
2024-01-08T06:48:30.271Z,5.73
2024-01-08T06:51:20.468Z,5.80
2024-01-08T06:54:10.369Z,6.20
2024-01-08T06:56:58.924Z,5.60
2024-01-08T06:59:48.826Z,6.70
2024-01-08T07:02:39.312Z,6.33
2024-01-08T07:05:28.076Z,7.20
2024-01-08T07:08:16.865Z,6.80
2024-01-08T07:11:07.009Z,5.87
2024-01-08T07:13:56.085Z,6.47
2024-01-08T07:16:44.767Z,6.70
2024-01-08T07:19:33.362Z,7.40
2024-01-08T07:22:22.215Z,6.43
2024-01-08T07:25:10.752Z,6.60
2024-01-08T07:28:00.951Z,7.30
2024-01-08T07:30:49.492Z,6.37
2024-01-08T07:33:38.442Z,6.83
2024-01-08T07:36:27.168Z,7.83
2024-01-08T07:39:15.900Z,7.07
2024-01-08T07:42:04.681Z,7.40
2024-01-08T07:44:54.535Z,7.50
2024-01-08T07:47:43.170Z,6.93
2024-01-08T07:50:31.920Z,6.70
2024-01-08T07:53:20.558Z,6.23
2024-01-08T07:56:09.143Z,8.83
2024-01-08T07:58:57.722Z,6.67
2024-01-08T08:01:47.830Z,7.20
2024-01-08T08:04:36.446Z,7.37
2024-01-08T08:07:25.354Z,7.90
2024-01-08T08:10:14.054Z,6.87
2024-01-08T08:13:02.662Z,6.47
2024-01-08T08:15:51.251Z,6.70
2024-01-08T08:18:41.418Z,6.80
2024-01-08T08:21:31.447Z,7.07
2024-01-08T08:24:20.034Z,8.90
2024-01-08T08:27:10.765Z,6.60
2024-01-08T08:29:59.657Z,7.00
2024-01-08T08:32:49.656Z,7.40
2024-01-08T08:35:39.840Z,7.17
2024-01-08T08:38:28.423Z,8.20
2024-01-08T08:41:17.463Z,7.23
2024-01-08T08:44:06.679Z,7.40
2024-01-08T08:46:55.281Z,6.50
2024-01-08T08:49:44.013Z,6.80
2024-01-08T08:52:34.196Z,6.73
2024-01-08T08:55:22.870Z,8.00
2024-01-08T08:58:11.455Z,7.33
2024-01-08T09:01:00.071Z,7.13
2024-01-08T09:03:48.556Z,7.17
2024-01-08T09:06:39.380Z,7.03
2024-01-08T09:09:32.180Z,6.90
2024-01-08T09:12:20.859Z,5.83
2024-01-08T09:15:10.280Z,6.43
2024-01-08T09:17:58.929Z,6.73
2024-01-08T09:20:50.067Z,8.17
2024-01-08T09:23:41.033Z,9.47
2024-01-08T09:26:31.036Z,7.33
2024-01-08T09:29:20.721Z,9.00
2024-01-08T09:32:12.075Z,6.83
2024-01-08T09:35:01.121Z,7.57
2024-01-08T09:37:50.054Z,6.97
2024-01-08T09:40:38.787Z,7.17
2024-01-08T09:43:29.616Z,7.70
2024-01-08T09:46:25.886Z,8.23
2024-01-08T09:49:15.945Z,7.47
2024-01-08T09:52:05.228Z,7.93
2024-01-08T09:54:53.814Z,7.10
2024-01-08T09:57:44.004Z,8.10
2024-01-08T10:00:34.380Z,8.90
2024-01-08T10:03:23.317Z,11.30
2024-01-08T10:06:12.600Z,8.03
2024-01-08T10:09:12.776Z,7.87
2024-01-08T10:12:01.601Z,10.33
2024-01-08T10:14:50.160Z,7.70
2024-01-08T10:17:41.530Z,8.40
2024-01-08T10:20:31.550Z,8.97
2024-01-08T10:23:26.829Z,8.53
2024-01-08T10:26:17.859Z,8.90
2024-01-08T10:29:06.755Z,7.60
2024-01-08T10:31:56.388Z,9.77
2024-01-08T10:34:47.400Z,7.50
2024-01-08T10:37:36.857Z,7.90
2024-01-08T10:40:27.704Z,6.87
2024-01-08T10:43:16.173Z,7.40
2024-01-08T10:46:05.734Z,6.60
2024-01-08T10:48:54.593Z,6.23
2024-01-08T10:51:45.981Z,6.23
2024-01-08T10:54:41.387Z,7.00
2024-01-08T10:57:36.708Z,6.80
2024-01-08T11:00:25.518Z,6.67
2024-01-08T11:03:15.037Z,7.67
2024-01-08T11:06:06.000Z,6.27
2024-01-08T11:08:57.856Z,6.70
2024-01-08T11:11:46.917Z,6.00
2024-01-08T11:14:35.672Z,9.13
2024-01-08T11:17:24.261Z,6.17
2024-01-08T11:20:42.527Z,6.57
2024-01-08T11:23:40.625Z,7.20
2024-01-08T11:26:31.074Z,6.67
2024-01-08T11:29:20.230Z,9.80
2024-01-08T11:32:57.625Z,6.50
2024-01-08T11:35:53.112Z,6.60
2024-01-08T11:38:42.457Z,6.73
2024-01-08T11:41:36.530Z,7.60
2024-01-08T11:44:27.713Z,5.37
2024-01-08T11:47:16.301Z,6.63
2024-01-08T11:50:07.859Z,6.10
2024-01-08T11:52:59.288Z,6.57
2024-01-08T11:55:48.888Z,6.23
2024-01-08T11:58:41.377Z,7.23
2024-01-08T12:01:31.404Z,6.57
2024-01-08T12:04:20.003Z,9.00
2024-01-08T12:07:13.154Z,7.23
2024-01-08T12:10:07.824Z,5.80
2024-01-08T12:12:58.413Z,7.77
2024-01-08T12:15:51.566Z,6.90
2024-01-08T12:18:40.351Z,13.13
2024-01-08T12:21:36.854Z,7.00
2024-01-08T12:24:32.015Z,6.70
2024-01-08T12:27:21.711Z,6.97
2024-01-08T12:30:13.112Z,7.23
2024-01-08T12:33:03.184Z,6.03
2024-01-08T12:35:54.427Z,7.33
2024-01-08T12:38:44.125Z,7.50
2024-01-08T12:41:33.355Z,7.83
2024-01-08T12:44:25.787Z,8.07
2024-01-08T12:47:14.570Z,10.97
2024-01-08T12:50:07.724Z,7.33
2024-01-08T12:52:58.916Z,6.83
2024-01-08T12:55:48.867Z,7.60
2024-01-08T12:58:37.611Z,7.57
2024-01-08T13:01:30.853Z,8.10
2024-01-08T13:04:21.086Z,7.27
2024-01-08T13:07:11.137Z,8.60
2024-01-08T13:09:59.773Z,7.93
2024-01-08T13:12:49.552Z,7.60
2024-01-08T13:15:38.081Z,7.13
2024-01-08T13:18:26.669Z,9.00
2024-01-08T13:21:17.788Z,7.17
2024-01-08T13:24:09.359Z,7.23
2024-01-08T13:27:00.997Z,8.13
2024-01-08T13:29:49.630Z,6.07
2024-01-08T13:32:38.357Z,7.50
2024-01-08T13:35:29.898Z,8.10
2024-01-08T13:38:18.544Z,8.30
2024-01-08T13:41:12.828Z,7.57
2024-01-08T13:44:02.869Z,10.80
2024-01-08T13:46:54.050Z,8.90
2024-01-08T13:49:43.143Z,9.63
2024-01-08T13:52:31.775Z,8.10
2024-01-08T13:55:21.482Z,9.03
2024-01-08T13:58:11.957Z,9.07
2024-01-08T14:01:00.727Z,8.80
2024-01-08T14:03:49.359Z,8.10
2024-01-08T14:06:38.159Z,7.60
2024-01-08T14:09:26.836Z,9.70
2024-01-08T14:12:15.506Z,8.60
2024-01-08T14:15:07.271Z,9.30
2024-01-08T14:17:58.256Z,8.97
2024-01-08T14:20:47.298Z,8.73
2024-01-08T14:23:35.927Z,8.57
2024-01-08T14:26:24.499Z,9.30
2024-01-08T14:29:13.142Z,8.07
2024-01-08T14:32:03.134Z,8.90
2024-01-08T14:34:51.842Z,10.67
2024-01-08T14:37:41.364Z,9.63
2024-01-08T14:40:30.189Z,9.63
2024-01-08T14:43:19.092Z,9.20
2024-01-08T14:46:08.865Z,9.53
2024-01-08T14:48:59.058Z,9.07
2024-01-08T14:51:47.675Z,9.43
2024-01-08T14:54:36.319Z,11.40
2024-01-08T14:57:27.162Z,9.50
2024-01-08T15:00:16.013Z,8.37
2024-01-08T15:03:05.279Z,9.27
2024-01-08T15:05:55.319Z,10.60
2024-01-08T15:08:44.255Z,9.57
2024-01-08T15:11:33.123Z,8.83
2024-01-08T15:14:24.379Z,8.97
2024-01-08T15:17:14.212Z,13.13
2024-01-08T15:20:04.200Z,13.43
2024-01-08T15:22:56.555Z,11.27
2024-01-08T15:25:47.820Z,9.83
2024-01-08T15:28:38.608Z,11.13
2024-01-08T15:31:27.447Z,13.50
2024-01-08T15:34:16.091Z,9.03
2024-01-08T15:37:04.755Z,11.03
2024-01-08T15:39:54.673Z,11.13
2024-01-08T15:42:43.301Z,9.67
2024-01-08T15:45:32.615Z,10.43
2024-01-08T15:48:21.472Z,12.10
2024-01-08T15:51:10.224Z,12.50
2024-01-08T15:53:58.729Z,14.33
2024-01-08T15:56:48.665Z,12.77
2024-01-08T15:59:39.303Z,11.30
2024-01-08T16:02:28.637Z,13.87
2024-01-08T16:05:17.358Z,10.33
2024-01-08T16:08:07.136Z,10.20
2024-01-08T16:10:55.674Z,11.93
2024-01-08T16:13:47.160Z,12.23
2024-01-08T16:16:35.777Z,12.80
2024-01-08T16:19:24.470Z,11.80
2024-01-08T16:22:13.397Z,12.00
2024-01-08T16:25:01.939Z,15.30
2024-01-08T16:27:50.568Z,8.80
2024-01-08T16:30:40.497Z,15.17
2024-01-08T16:33:29.297Z,13.27
2024-01-08T16:36:17.996Z,13.93
2024-01-08T16:39:07.073Z,13.43
2024-01-08T16:41:55.635Z,12.63
2024-01-08T16:44:44.341Z,13.83
2024-01-08T16:47:45.281Z,12.73
2024-01-08T16:50:42.384Z,15.27
2024-01-08T16:53:32.219Z,13.37
2024-01-08T16:56:20.855Z,16.37
2024-01-08T16:59:09.948Z,18.70
2024-01-08T17:01:58.597Z,11.83
2024-01-08T17:04:48.558Z,14.60
2024-01-08T17:07:37.120Z,17.80
2024-01-08T17:10:25.725Z,14.20
2024-01-08T17:13:14.247Z,15.47
2024-01-08T17:16:02.767Z,12.93
2024-01-08T17:18:51.407Z,14.63
2024-01-08T17:21:41.531Z,13.13
2024-01-08T17:24:30.078Z,13.13
2024-01-08T17:27:19.551Z,13.87
2024-01-08T17:30:09.375Z,13.20
2024-01-08T17:33:00.288Z,17.10
2024-01-08T17:35:49.117Z,15.77
2024-01-08T17:38:39.139Z,14.30
2024-01-08T17:41:29.789Z,14.27
2024-01-08T17:44:18.493Z,15.80
2024-01-08T17:47:07.235Z,13.60
2024-01-08T17:49:55.754Z,14.57
2024-01-08T17:52:47.375Z,20.80
2024-01-08T17:55:37.257Z,11.93
2024-01-08T17:58:29.045Z,21.97
2024-01-08T18:01:18.652Z,15.23
2024-01-08T18:04:07.885Z,15.80
2024-01-08T18:06:59.485Z,19.53
2024-01-08T18:09:48.138Z,15.33
2024-01-08T18:12:43.574Z,19.73
2024-01-08T18:15:32.646Z,17.70
2024-01-08T18:18:23.279Z,14.00
2024-01-08T18:21:11.984Z,14.63
2024-01-08T18:24:00.561Z,16.47
2024-01-08T18:26:49.285Z,18.03
2024-01-08T18:29:39.462Z,13.90
2024-01-08T18:32:28.118Z,19.93
2024-01-08T18:35:17.016Z,15.10
2024-01-08T18:38:05.831Z,24.27
2024-01-08T18:40:54.399Z,14.97
2024-01-08T18:43:43.094Z,12.70
2024-01-08T18:46:33.096Z,15.83
2024-01-08T18:49:21.835Z,18.90
2024-01-08T18:52:10.569Z,15.40
2024-01-08T18:54:59.145Z,17.40
2024-01-08T18:57:48.133Z,15.53
2024-01-08T19:00:38.524Z,16.00
2024-01-08T19:03:29.031Z,17.80
2024-01-08T19:06:17.700Z,17.93
2024-01-08T19:09:07.257Z,14.03
2024-01-08T19:11:56.886Z,18.30
2024-01-08T19:14:45.767Z,17.63
2024-01-08T19:17:35.142Z,20.97
2024-01-08T19:20:27.212Z,18.70
2024-01-08T19:23:16.451Z,21.40
2024-01-08T19:26:08.508Z,18.50
2024-01-08T19:28:58.976Z,14.70
2024-01-08T19:31:47.749Z,15.90
2024-01-08T19:34:36.356Z,16.53
2024-01-08T19:37:26.329Z,17.83
2024-01-08T19:40:14.942Z,20.43
2024-01-08T19:43:03.921Z,21.93
2024-01-08T19:45:52.556Z,18.33
2024-01-08T19:48:41.216Z,16.80
2024-01-08T19:51:29.897Z,16.03
2024-01-08T19:54:19.888Z,12.23
2024-01-08T19:57:09.851Z,17.00
2024-01-08T19:59:58.541Z,12.37
2024-01-08T20:02:47.096Z,18.67
2024-01-08T20:05:35.744Z,19.70
2024-01-08T20:08:24.375Z,15.00
2024-01-08T20:11:16.455Z,19.83
2024-01-08T20:14:05.225Z,18.53
2024-01-08T20:16:53.852Z,16.00
2024-01-08T20:19:42.441Z,16.33
2024-01-08T20:22:31.186Z,12.83
2024-01-08T20:25:22.417Z,17.37
2024-01-08T20:28:14.334Z,89.33
2024-01-08T20:31:02.965Z,16.37
2024-01-08T20:33:53.108Z,14.13
2024-01-08T20:36:41.969Z,15.10
2024-01-08T20:39:34.847Z,20.70
2024-01-08T20:42:23.476Z,16.93
2024-01-08T20:45:13.425Z,14.00
2024-01-08T20:48:02.015Z,21.37
2024-01-08T20:50:50.760Z,14.37
2024-01-08T20:53:39.467Z,19.20
2024-01-08T20:56:28.127Z,16.90
2024-01-08T20:59:16.821Z,17.60
2024-01-08T21:02:06.898Z,18.43
2024-01-08T21:04:55.953Z,17.23
2024-01-08T21:07:44.647Z,15.40
2024-01-08T21:10:33.297Z,15.83
2024-01-08T21:13:22.205Z,18.17
2024-01-08T21:16:11.033Z,18.67
2024-01-08T21:19:03.957Z,19.43
2024-01-08T21:21:54.520Z,19.00
2024-01-08T21:24:43.216Z,17.10
2024-01-08T21:27:31.859Z,21.77
2024-01-08T21:30:20.887Z,18.30
2024-01-08T21:33:09.719Z,19.33
2024-01-08T21:35:59.669Z,22.73
2024-01-08T21:38:48.265Z,16.27
2024-01-08T21:41:37.599Z,15.80
2024-01-08T21:44:26.242Z,16.30
2024-01-08T21:47:14.881Z,18.60
2024-01-08T21:50:05.246Z,18.60
2024-01-08T21:52:55.226Z,25.23
2024-01-08T21:55:43.924Z,22.13
2024-01-08T21:58:32.426Z,21.93
2024-01-08T22:01:21.052Z,21.83
2024-01-08T22:04:11.584Z,16.40
2024-01-08T22:07:00.204Z,21.07
2024-01-08T22:09:50.182Z,13.87
2024-01-08T22:12:42.250Z,19.53
2024-01-08T22:15:32.491Z,22.13
2024-01-08T22:18:21.191Z,18.13
2024-01-08T22:21:09.768Z,23.17
2024-01-08T22:23:58.555Z,19.43
2024-01-08T22:26:48.625Z,18.67
2024-01-08T22:29:37.414Z,16.73
2024-01-08T22:32:26.157Z,17.30
2024-01-08T22:35:14.867Z,19.93
2024-01-08T22:38:04.019Z,20.10
2024-01-08T22:40:52.824Z,20.63
2024-01-08T22:43:42.688Z,18.20
2024-01-08T22:46:31.306Z,20.00
2024-01-08T22:49:19.905Z,15.93
2024-01-08T22:52:09.297Z,19.67
2024-01-08T22:54:57.961Z,19.40
2024-01-08T22:57:46.511Z,22.40
2024-01-08T23:00:36.505Z,17.17
2024-01-08T23:03:25.202Z,23.03
2024-01-08T23:06:13.871Z,20.50
2024-01-08T23:09:02.827Z,19.93
2024-01-08T23:11:51.490Z,20.70
2024-01-08T23:14:40.180Z,17.10
2024-01-08T23:17:30.279Z,23.63
2024-01-08T23:20:19.258Z,21.00
2024-01-08T23:23:07.847Z,20.97
2024-01-08T23:25:56.460Z,24.13
2024-01-08T23:28:45.000Z,20.80
2024-01-08T23:31:33.556Z,19.97
2024-01-08T23:34:23.695Z,21.23
2024-01-08T23:37:12.301Z,22.43
2024-01-08T23:40:00.854Z,18.67
2024-01-08T23:42:49.492Z,19.43
2024-01-08T23:45:40.194Z,23.70
2024-01-08T23:48:29.055Z,19.07
2024-01-08T23:51:18.990Z,20.20
2024-01-08T23:54:07.701Z,20.07
2024-01-08T23:56:56.726Z,19.77
2024-01-08T23:59:45.521Z,22.50
